Alexandria, Louisiana
Current Conditions -  °F | °C
As of 5:53 AM on Thursday 18 Dec 2014 (Local Time) from KAEX Reporting Station
Overcast Overcast  
Wind Chill: 51°   Ceiling: 2200
Heat Index: 51°   Visibility: 10mi
Dew Point: 43°   Wind: 7mph
Humidity: 74%   Direction: 100°E
Pressure: 30.11"   Gusts: NA
Location:  31.31°N, 92.44°W
Report Text: KAEX 181153Z 10006KT 10SM OVC022 11/06 A3011 RMK AO2 SLP202 T01060061 10106 20094 56013
Loading
Personal Weather Stations






























Interactive Weather Map New forecast layout! Learn more

10-Day Weather Forecast

Advertisements
Track Severe Weather on mobile